createdAt,value
2023-02-21T00:02:02.706Z,101399.16
2023-02-21T00:04:48.474Z,101407.50
2023-02-21T00:07:33.993Z,101407.31
2023-02-21T00:10:19.488Z,101421.00
2023-02-21T00:13:05.987Z,101403.72
2023-02-21T00:15:52.559Z,101414.34
2023-02-21T00:18:38.148Z,101414.72
2023-02-21T00:21:24.302Z,101411.69
2023-02-21T00:24:09.756Z,101408.63
2023-02-21T00:26:55.337Z,101416.59
2023-02-21T00:29:40.768Z,101418.03
2023-02-21T00:32:27.415Z,101424.19
2023-02-21T00:35:12.716Z,101434.78
2023-02-21T00:37:58.322Z,101419.50
2023-02-21T00:40:43.855Z,101428.78
2023-02-21T00:43:29.362Z,101426.91
2023-02-21T00:46:14.793Z,101424.09
2023-02-21T00:49:01.563Z,101429.00
2023-02-21T00:51:46.815Z,101426.34
2023-02-21T00:54:32.306Z,101443.94
2023-02-21T00:57:17.664Z,101439.81
2023-02-21T01:00:03.079Z,101439.81
2023-02-21T01:02:49.061Z,101439.00
2023-02-21T01:05:35.979Z,101445.13
2023-02-21T01:08:21.512Z,101441.47
2023-02-21T01:11:06.919Z,101452.88
2023-02-21T01:13:52.377Z,101446.78
2023-02-21T01:16:37.798Z,101456.56
2023-02-21T01:19:22.954Z,101459.22
2023-02-21T01:22:09.744Z,101458.75
2023-02-21T01:24:55.268Z,101456.94
2023-02-21T01:27:40.692Z,101453.28
2023-02-21T01:30:27.831Z,101458.59
2023-02-21T01:33:12.914Z,101463.28
2023-02-21T01:35:58.397Z,101456.47
2023-02-21T01:38:45.120Z,101462.56
2023-02-21T01:41:30.445Z,101452.16
2023-02-21T01:44:19.114Z,101450.50
2023-02-21T01:47:04.957Z,101455.66
2023-02-21T01:49:53.575Z,101454.00
2023-02-21T01:52:39.586Z,101455.19
2023-02-21T01:55:28.682Z,101451.91
2023-02-21T01:58:15.645Z,101457.41
2023-02-21T02:01:01.813Z,101447.78
2023-02-21T02:03:49.516Z,101450.66
2023-02-21T02:06:36.198Z,101445.34
2023-02-21T02:09:35.007Z,101456.13
2023-02-21T02:12:35.470Z,101445.91
2023-02-21T02:15:43.269Z,101456.69
2023-02-21T02:18:50.835Z,101450.03
2023-02-21T02:21:59.228Z,101453.88
2023-02-21T02:25:07.640Z,101451.38
2023-02-21T02:28:17.612Z,101453.59
2023-02-21T02:31:28.053Z,101458.28
2023-02-21T02:34:36.694Z,101447.03
2023-02-21T02:37:15.917Z,101451.94
2023-02-21T02:39:51.770Z,101455.22
2023-02-21T02:42:33.464Z,101454.22
2023-02-21T02:45:10.006Z,101450.19
2023-02-21T02:47:40.501Z,101458.78
2023-02-21T02:50:12.396Z,101463.09
2023-02-21T02:52:51.281Z,101462.44
2023-02-21T02:55:33.826Z,101457.16
2023-02-21T02:58:02.608Z,101453.47
2023-02-21T03:00:33.174Z,101460.44
2023-02-21T03:03:43.041Z,101453.88
2023-02-21T03:06:28.397Z,101452.84
2023-02-21T03:09:12.715Z,101455.50
2023-02-21T03:11:52.134Z,101458.78
2023-02-21T03:14:27.547Z,101464.06
2023-02-21T03:17:02.894Z,101471.03
2023-02-21T03:19:35.471Z,101460.44
2023-02-21T03:22:08.773Z,101469.00
2023-02-21T03:24:38.435Z,101470.47
2023-02-21T03:27:08.265Z,101478.91
2023-02-21T03:29:38.826Z,101484.00
2023-02-21T03:32:11.336Z,101485.66
2023-02-21T03:34:39.190Z,101482.19
2023-02-21T03:37:10.850Z,101476.41
2023-02-21T03:39:37.792Z,101473.94
2023-02-21T03:42:04.947Z,101480.25
2023-02-21T03:44:31.825Z,101482.91
2023-02-21T03:46:58.794Z,101477.59
2023-02-21T03:49:25.677Z,101480.25
2023-02-21T03:51:52.542Z,101475.97
2023-02-21T03:54:20.786Z,101484.56
2023-02-21T03:56:47.744Z,101483.56
2023-02-21T03:59:14.655Z,101482.91
2023-02-21T04:01:41.541Z,101476.97
2023-02-21T04:04:09.607Z,101478.56
2023-02-21T04:06:36.486Z,101477.09
2023-02-21T04:09:03.951Z,101476.44
2023-02-21T04:11:32.597Z,101475.81
2023-02-21T04:13:59.554Z,101471.69
2023-02-21T04:16:26.519Z,101464.78
2023-02-21T04:18:53.443Z,101464.94
2023-02-21T04:21:20.564Z,101467.59
2023-02-21T04:23:47.427Z,101464.31
2023-02-21T04:26:14.448Z,101459.41
2023-02-21T04:28:42.703Z,101470.81
2023-02-21T04:31:09.622Z,101463.03
2023-02-21T04:33:36.514Z,101471.19
2023-02-21T04:36:03.837Z,101469.75
2023-02-21T04:38:30.745Z,101468.09
2023-02-21T04:40:57.587Z,101475.03
2023-02-21T04:43:24.562Z,101468.53
2023-02-21T04:45:52.867Z,101465.91
2023-02-21T04:48:20.538Z,101475.47
2023-02-21T04:50:47.625Z,101466.53
2023-02-21T04:53:14.961Z,101466.53
2023-02-21T04:55:41.958Z,101460.41
2023-02-21T04:58:08.894Z,101466.69
2023-02-21T05:00:35.772Z,101458.72
2023-02-21T05:03:03.986Z,101458.72
2023-02-21T05:05:30.903Z,101456.09
2023-02-21T05:07:57.795Z,101449.78
2023-02-21T05:10:31.012Z,101456.56
2023-02-21T05:13:03.652Z,101448.59
2023-02-21T05:15:30.537Z,101457.38
2023-02-21T05:17:57.436Z,101457.38
2023-02-21T05:20:25.822Z,101453.69
2023-02-21T05:22:54.524Z,101459.00
2023-02-21T05:25:24.767Z,101455.53
2023-02-21T05:27:53.286Z,101464.31
2023-02-21T05:30:22.347Z,101455.34
2023-02-21T05:32:49.797Z,101458.84
2023-02-21T05:35:17.217Z,101459.47
2023-02-21T05:37:45.474Z,101457.44
2023-02-21T05:40:13.257Z,101463.56
2023-02-21T05:42:40.170Z,101465.59
2023-02-21T05:45:09.468Z,101461.09
2023-02-21T05:47:36.899Z,101455.00
2023-02-21T05:50:05.623Z,101457.81
2023-02-21T05:52:32.801Z,101462.28
2023-02-21T05:55:00.994Z,101464.31
2023-02-21T05:57:29.145Z,101462.47
2023-02-21T05:59:56.085Z,101468.41
2023-02-21T06:02:23.070Z,101476.22
2023-02-21T06:04:49.999Z,101470.91
2023-02-21T06:07:18.634Z,101474.56
2023-02-21T06:09:45.565Z,101481.88
2023-02-21T06:12:13.870Z,101470.63
2023-02-21T06:14:40.743Z,101478.94
2023-02-21T06:17:07.643Z,101480.97
2023-02-21T06:19:34.513Z,101481.13
2023-02-21T06:22:01.584Z,101493.59
2023-02-21T06:24:28.430Z,101492.78
2023-02-21T06:26:56.180Z,101492.56
2023-02-21T06:29:24.399Z,101488.72
2023-02-21T06:31:57.585Z,101496.53
2023-02-21T06:34:24.749Z,101496.53
2023-02-21T06:36:52.963Z,101496.53
2023-02-21T06:39:19.942Z,101496.53
2023-02-21T06:41:46.890Z,101501.00
2023-02-21T06:44:13.833Z,101501.81
2023-02-21T06:46:43.279Z,101498.78
2023-02-21T06:49:10.686Z,101496.75
2023-02-21T06:51:40.972Z,101502.72
2023-02-21T06:54:09.288Z,101498.69
2023-02-21T06:56:36.858Z,101495.00
2023-02-21T06:59:03.995Z,101494.22
2023-02-21T07:01:31.407Z,101492.34
2023-02-21T07:04:00.083Z,101492.34
2023-02-21T07:06:29.614Z,101496.03
2023-02-21T07:08:57.256Z,101496.88
2023-02-21T07:11:24.309Z,101502.34
2023-02-21T07:13:52.045Z,101504.81
2023-02-21T07:16:20.120Z,101504.00
2023-02-21T07:18:47.399Z,101503.78
2023-02-21T07:21:17.359Z,101514.25
2023-02-21T07:23:45.435Z,101512.22
2023-02-21T07:26:13.611Z,101513.84
2023-02-21T07:28:41.015Z,101515.69
2023-02-21T07:31:08.110Z,101522.63
2023-02-21T07:33:35.103Z,101527.75
2023-02-21T07:36:02.603Z,101530.38
2023-02-21T07:38:36.192Z,101527.75
2023-02-21T07:41:04.481Z,101539.00
2023-02-21T07:43:33.220Z,101536.34
2023-02-21T07:46:01.026Z,101543.50
2023-02-21T07:48:28.060Z,101539.00
2023-02-21T07:50:55.009Z,101539.00
2023-02-21T07:53:22.029Z,101539.66
2023-02-21T07:55:50.373Z,101547.59
2023-02-21T07:58:19.131Z,101554.53
2023-02-21T08:00:47.414Z,101549.22
2023-02-21T08:03:14.966Z,101551.88
2023-02-21T08:05:42.059Z,101552.72
2023-02-21T08:08:09.619Z,101557.19
2023-02-21T08:10:36.721Z,101571.13
2023-02-21T08:13:05.666Z,101571.13
2023-02-21T08:15:32.540Z,101574.75
2023-02-21T08:17:59.533Z,101574.41
2023-02-21T08:20:26.410Z,101570.72
2023-02-21T08:22:53.655Z,101578.03
2023-02-21T08:25:20.575Z,101574.41
2023-02-21T08:27:55.271Z,101583.00
2023-02-21T08:30:27.555Z,101576.34
2023-02-21T08:32:54.689Z,101576.16
2023-02-21T08:35:21.985Z,101580.25
2023-02-21T08:37:51.832Z,101577.22
2023-02-21T08:40:19.906Z,101583.16
2023-02-21T08:42:50.323Z,101586.91
2023-02-21T08:45:20.958Z,101587.38
2023-02-21T08:47:50.362Z,101589.00
2023-02-21T08:50:18.834Z,101585.72
2023-02-21T08:52:46.346Z,101586.56
2023-02-21T08:55:13.968Z,101585.72
2023-02-21T08:58:41.926Z,101586.84
2023-02-21T09:53:03.789Z,101611.00
2023-02-21T09:55:36.074Z,101610.88
2023-02-21T09:58:03.226Z,101614.44
2023-02-21T10:00:36.692Z,101612.03
2023-02-21T10:03:28.504Z,101611.22
2023-02-21T10:06:05.659Z,101609.03
2023-02-21T10:08:47.514Z,101606.63
2023-02-21T10:11:31.195Z,101607.97
2023-02-21T10:14:13.108Z,101616.03
2023-02-21T10:16:51.745Z,101614.41
2023-02-21T10:19:26.341Z,101610.56
2023-02-21T10:21:58.674Z,101621.81
2023-02-21T10:24:28.996Z,101614.06
2023-02-21T10:27:04.440Z,101611.81
2023-02-21T10:29:44.040Z,101612.09
2023-02-21T10:32:11.415Z,101614.25
2023-02-21T10:34:38.514Z,101622.47
2023-02-21T10:37:26.204Z,101620.44
2023-02-21T10:40:02.444Z,101622.97
2023-02-21T10:42:39.884Z,101623.88
2023-02-21T10:45:09.285Z,101626.81
2023-02-21T10:47:53.521Z,101635.88
2023-02-21T10:50:50.729Z,101626.28
2023-02-21T10:53:29.583Z,101631.75
2023-02-21T10:56:21.045Z,101629.31
2023-02-21T10:58:51.688Z,101635.25
2023-02-21T11:01:22.499Z,101633.47
2023-02-21T11:03:52.110Z,101632.69
2023-02-21T11:06:31.617Z,101629.63
2023-02-21T11:09:00.333Z,101638.69
2023-02-21T11:11:40.743Z,101626.25
2023-02-21T11:14:22.964Z,101626.69
2023-02-21T11:17:15.572Z,101633.91
2023-02-21T11:19:52.883Z,101631.72
2023-02-21T11:22:25.005Z,101634.81
2023-02-21T11:25:01.186Z,101635.06
2023-02-21T11:27:34.219Z,101631.00
2023-02-21T11:30:12.644Z,101635.91
2023-02-21T11:32:43.205Z,101623.66
2023-02-21T11:35:25.714Z,101626.13
2023-02-21T11:37:57.495Z,101633.97
2023-02-21T11:40:32.909Z,101626.22
2023-02-21T11:43:23.891Z,101634.84
2023-02-21T11:46:05.223Z,101630.75
2023-02-21T11:48:39.147Z,101618.06
2023-02-21T11:51:33.533Z,101623.38
2023-02-21T11:54:00.687Z,101624.63
2023-02-21T11:56:42.660Z,101619.53
2023-02-21T11:59:32.765Z,101627.09
2023-02-21T12:02:52.177Z,101616.88
2023-02-21T12:05:34.947Z,101618.13
2023-02-21T12:08:27.204Z,101617.75
2023-02-21T12:11:11.847Z,101621.84
2023-02-21T12:13:56.594Z,101610.34
2023-02-21T12:16:43.074Z,101616.50
2023-02-21T12:19:44.885Z,101618.34
2023-02-21T12:22:30.876Z,101618.34
2023-02-21T12:25:15.357Z,101617.28
2023-02-21T12:27:55.910Z,101614.63
2023-02-21T12:30:40.435Z,101615.66
2023-02-21T12:33:27.518Z,101619.97
2023-02-21T12:36:28.562Z,101617.13
2023-02-21T12:39:16.150Z,101612.41
2023-02-21T12:42:06.082Z,101617.72
2023-02-21T12:44:49.263Z,101613.19
2023-02-21T12:47:23.261Z,101612.41
2023-02-21T12:50:00.266Z,101610.53
2023-02-21T12:52:36.346Z,101609.53
2023-02-21T12:55:12.459Z,101608.09
2023-02-21T12:57:51.598Z,101606.47
2023-02-21T13:00:22.880Z,101609.56
2023-02-21T13:03:01.629Z,101598.91
2023-02-21T13:05:39.821Z,101594.44
2023-02-21T13:08:20.946Z,101596.50
2023-02-21T13:11:00.820Z,101586.25
2023-02-21T13:13:34.944Z,101594.47
2023-02-21T13:16:05.838Z,101590.38
2023-02-21T13:18:39.315Z,101588.31
2023-02-21T13:21:30.804Z,101594.47
2023-02-21T13:24:29.901Z,101580.53
2023-02-21T13:27:48.607Z,101585.44
2023-02-21T13:30:23.550Z,101578.47
2023-02-21T13:32:55.203Z,101575.81
2023-02-21T13:35:32.350Z,101579.69
2023-02-21T13:38:06.700Z,101579.91
2023-02-21T13:40:38.326Z,101580.50
2023-02-21T13:43:13.964Z,101582.53
2023-02-21T13:45:41.416Z,101584.78
2023-02-21T13:48:29.553Z,101580.47
2023-02-21T13:50:59.315Z,101576.81
2023-02-21T13:53:33.928Z,101578.03
2023-02-21T13:56:18.458Z,101576.38
2023-02-21T13:58:48.403Z,101585.38
2023-02-21T14:01:42.417Z,101577.22
2023-02-21T14:05:01.301Z,101578.59
2023-02-21T14:07:56.775Z,101577.38
2023-02-21T14:10:38.629Z,101578.41
2023-02-21T14:13:18.587Z,101584.34
2023-02-21T14:15:50.398Z,101573.88
2023-02-21T14:18:25.437Z,101569.78
2023-02-21T14:20:56.114Z,101575.72
2023-02-21T14:23:31.675Z,101570.63
2023-02-21T14:26:04.061Z,101573.50
2023-02-21T14:29:11.456Z,101574.28
2023-02-21T14:31:56.067Z,101572.66
2023-02-21T14:34:35.941Z,101568.34
2023-02-21T14:37:13.349Z,101569.34
2023-02-21T14:39:45.230Z,101564.84
2023-02-21T14:42:36.137Z,101565.47
2023-02-21T14:45:34.134Z,101571.19
2023-02-21T14:48:41.565Z,101569.34
2023-02-21T14:51:57.892Z,101573.44
2023-02-21T14:54:56.241Z,101568.09
2023-02-21T14:58:04.012Z,101565.22
2023-02-21T15:00:42.423Z,101559.47
2023-02-21T15:03:19.059Z,101565.22
2023-02-21T15:06:03.117Z,101566.81
2023-02-21T15:08:42.685Z,101566.41
2023-02-21T15:11:26.081Z,101566.81
2023-02-21T15:14:22.823Z,101572.50
2023-02-21T15:16:54.127Z,101564.72
2023-02-21T15:19:29.392Z,101574.53
2023-02-21T15:22:18.094Z,101574.53
2023-02-21T15:25:14.774Z,101575.50
2023-02-21T15:28:01.790Z,101575.28
2023-02-21T15:30:39.006Z,101569.34
2023-02-21T15:33:15.172Z,101570.75
2023-02-21T15:35:49.926Z,101570.31
2023-02-21T15:38:27.959Z,101570.69
2023-02-21T15:41:02.484Z,101565.38
2023-02-21T15:43:39.057Z,101567.84
2023-02-21T15:46:15.125Z,101569.06
2023-02-21T15:48:42.299Z,101573.19
2023-02-21T15:51:11.462Z,101571.13
2023-02-21T15:53:38.636Z,101568.09
2023-02-21T15:56:28.434Z,101566.81
2023-02-21T15:59:18.808Z,101571.53
2023-02-21T16:02:15.444Z,101571.91
2023-02-21T16:04:45.285Z,101571.53
2023-02-21T16:07:23.502Z,101578.28
2023-02-21T16:09:59.891Z,101574.34
2023-02-21T16:12:33.160Z,101583.13
2023-02-21T16:15:05.790Z,101575.13
2023-02-21T16:17:37.487Z,101573.47
2023-02-21T16:20:16.750Z,101573.06
2023-02-21T16:23:06.671Z,101570.63
2023-02-21T16:25:34.703Z,101576.31
2023-02-21T16:28:10.591Z,101578.97
2023-02-21T16:30:39.191Z,101578.34
2023-02-21T16:33:13.839Z,101578.72
2023-02-21T16:35:42.347Z,101578.53
2023-02-21T16:38:18.260Z,101584.69
2023-02-21T16:40:45.562Z,101584.88
2023-02-21T16:43:19.636Z,101584.44
2023-02-21T16:45:51.549Z,101588.75
2023-02-21T16:48:26.495Z,101584.44
2023-02-21T16:50:54.085Z,101586.47
2023-02-21T16:53:22.558Z,101592.78
2023-02-21T16:55:51.556Z,101586.69
2023-02-21T16:58:25.991Z,101581.53
2023-02-21T17:00:57.368Z,101601.19
2023-02-21T17:03:26.024Z,101605.88
2023-02-21T17:05:55.111Z,101599.09
2023-02-21T17:08:22.072Z,101604.78
2023-02-21T17:10:48.926Z,101606.00
2023-02-21T17:13:15.872Z,101609.66
2023-02-21T17:15:42.942Z,101617.84
2023-02-21T17:18:10.013Z,101615.75
2023-02-21T17:20:38.193Z,101614.50
2023-02-21T17:23:05.534Z,101613.69
2023-02-21T17:25:34.898Z,101617.34
2023-02-21T17:28:02.096Z,101616.56
2023-02-21T17:30:29.201Z,101619.84
2023-02-21T17:32:56.182Z,101623.28
2023-02-21T17:35:24.487Z,101622.28
2023-02-21T17:37:52.914Z,101614.50
2023-02-21T17:40:22.000Z,101618.19
2023-02-21T17:42:49.468Z,101618.56
2023-02-21T17:45:19.777Z,101610.78
2023-02-21T17:47:47.421Z,101616.94
2023-02-21T17:50:15.196Z,101615.25
2023-02-21T17:52:43.242Z,101620.59
2023-02-21T17:55:19.492Z,101617.09
2023-02-21T17:57:46.605Z,101618.97
2023-02-21T18:00:21.279Z,101619.09
2023-02-21T18:02:48.828Z,101616.31
2023-02-21T18:05:15.921Z,101625.25
2023-02-21T18:07:47.833Z,101622.59
2023-02-21T18:10:17.975Z,101630.75
2023-02-21T18:12:45.477Z,101630.31
2023-02-21T18:15:13.857Z,101634.38
2023-02-21T18:17:40.972Z,101628.41
2023-02-21T18:20:12.049Z,101630.44
2023-02-21T18:22:38.987Z,101626.13
2023-02-21T18:25:08.495Z,101628.16
2023-02-21T18:27:37.454Z,101633.47
2023-02-21T18:30:06.263Z,101628.53
2023-02-21T18:32:33.452Z,101628.91
2023-02-21T18:35:00.794Z,101637.91
2023-02-21T18:37:27.817Z,101639.09
2023-02-21T18:39:56.172Z,101641.97
2023-02-21T18:42:23.904Z,101641.97
2023-02-21T18:44:52.534Z,101647.91
2023-02-21T18:47:19.873Z,101638.28
2023-02-21T18:49:47.804Z,101641.56
2023-02-21T18:52:16.105Z,101638.91
2023-02-21T18:54:44.456Z,101639.94
2023-02-21T18:57:11.969Z,101637.66
2023-02-21T18:59:39.041Z,101630.06
2023-02-21T19:02:12.278Z,101637.38
2023-02-21T19:04:39.470Z,101635.72
2023-02-21T19:07:07.958Z,101633.47
2023-02-21T19:09:37.833Z,101638.97
2023-02-21T19:12:07.885Z,101633.84
2023-02-21T19:14:35.209Z,101637.69
2023-02-21T19:17:02.573Z,101636.03
2023-02-21T19:19:31.980Z,101638.53
2023-02-21T19:21:59.748Z,101638.53
2023-02-21T19:24:27.478Z,101635.25
2023-02-21T19:26:54.713Z,101640.56
2023-02-21T19:29:21.900Z,101641.34
2023-02-21T19:31:49.304Z,101642.19
2023-02-21T19:34:16.670Z,101638.88
2023-02-21T19:36:44.852Z,101641.75
2023-02-21T19:39:12.021Z,101635.53
2023-02-21T19:41:40.276Z,101640.03
2023-02-21T19:44:08.641Z,101634.09
2023-02-21T19:46:35.830Z,101642.03
2023-02-21T19:49:03.601Z,101641.03
2023-02-21T19:51:32.827Z,101642.88
2023-02-21T19:54:01.856Z,101643.69
2023-02-21T19:56:29.060Z,101642.47
2023-02-21T19:58:57.968Z,101650.28
2023-02-21T20:01:26.451Z,101642.94
2023-02-21T20:03:53.477Z,101647.88
2023-02-21T20:06:24.591Z,101645.88
2023-02-21T20:08:51.724Z,101648.53
2023-02-21T20:11:22.950Z,101642.56
2023-02-21T20:13:50.596Z,101644.78
2023-02-21T20:16:20.216Z,101650.28
2023-02-21T20:18:49.898Z,101650.66
2023-02-21T20:21:19.359Z,101645.69
2023-02-21T20:23:46.637Z,101643.25
2023-02-21T20:26:16.221Z,101646.06
2023-02-21T20:28:47.177Z,101644.44
2023-02-21T20:31:15.107Z,101642.63
2023-02-21T20:33:43.038Z,101639.75
2023-02-21T20:36:10.343Z,101638.94
2023-02-21T20:38:38.487Z,101648.34
2023-02-21T20:41:08.680Z,101651.84
2023-02-21T20:43:36.316Z,101647.00
2023-02-21T20:46:05.311Z,101650.66
2023-02-21T20:48:32.665Z,101651.47
2023-02-21T20:51:00.467Z,101647.78
2023-02-21T20:53:28.408Z,101644.97
2023-02-21T20:55:55.897Z,101646.22
2023-02-21T20:58:24.295Z,101649.50
2023-02-21T21:00:53.193Z,101643.00
2023-02-21T21:03:21.436Z,101644.00
2023-02-21T21:05:48.340Z,101639.91
2023-02-21T21:08:16.003Z,101635.81
2023-02-21T21:10:48.366Z,101637.63
2023-02-21T21:13:15.728Z,101639.66
2023-02-21T21:15:43.502Z,101643.94
2023-02-21T21:18:10.682Z,101638.47
2023-02-21T21:20:39.038Z,101642.94
2023-02-21T21:23:06.997Z,101640.91
2023-02-21T21:25:34.536Z,101644.56
2023-02-21T21:28:02.307Z,101635.59
2023-02-21T21:30:30.442Z,101635.97
2023-02-21T21:32:57.506Z,101637.00
2023-02-21T21:35:29.883Z,101633.53
2023-02-21T21:37:58.292Z,101632.69
2023-02-21T21:40:26.943Z,101636.38
2023-02-21T21:42:54.166Z,101630.22
2023-02-21T21:45:25.382Z,101627.38
2023-02-21T21:47:55.309Z,101629.03
2023-02-21T21:50:23.115Z,101630.50
2023-02-21T21:52:53.876Z,101630.28
2023-02-21T21:55:25.448Z,101619.66
2023-02-21T21:57:53.463Z,101624.00
2023-02-21T22:00:24.860Z,101624.63
2023-02-21T22:02:57.400Z,101616.25
2023-02-21T22:05:25.932Z,101614.63
2023-02-21T22:07:53.485Z,101618.91
2023-02-21T22:10:24.108Z,101614.41
2023-02-21T22:12:53.916Z,101611.75
2023-02-21T22:15:24.653Z,101608.28
2023-02-21T22:17:52.109Z,101611.97
2023-02-21T22:20:28.140Z,101600.88
2023-02-21T22:22:59.626Z,101604.09
2023-02-21T22:25:30.466Z,101605.50
2023-02-21T22:28:03.036Z,101598.09
2023-02-21T22:30:29.944Z,101597.47
2023-02-21T22:32:56.973Z,101597.47
2023-02-21T22:35:25.087Z,101599.94
2023-02-21T22:37:56.229Z,101596.66
2023-02-21T22:40:27.020Z,101593.16
2023-02-21T22:42:56.605Z,101594.19
2023-02-21T22:45:24.363Z,101591.34
2023-02-21T22:47:55.617Z,101589.69
2023-02-21T22:50:25.861Z,101596.84
2023-02-21T22:52:55.485Z,101595.00
2023-02-21T22:55:24.969Z,101594.00
2023-02-21T22:57:56.230Z,101590.69
2023-02-21T23:00:27.055Z,101593.34
2023-02-21T23:02:53.968Z,101588.88
2023-02-21T23:05:22.072Z,101584.38
2023-02-21T23:07:51.846Z,101579.06
2023-02-21T23:10:25.589Z,101573.13
2023-02-21T23:12:58.057Z,101574.16
2023-02-21T23:15:27.094Z,101575.34
2023-02-21T23:17:54.479Z,101578.56
2023-02-21T23:20:26.497Z,101578.09
2023-02-21T23:22:57.410Z,101575.19
2023-02-21T23:25:26.679Z,101568.69
2023-02-21T23:27:57.570Z,101568.69
2023-02-21T23:30:27.279Z,101572.78
2023-02-21T23:32:55.549Z,101566.28
2023-02-21T23:35:22.844Z,101562.53
2023-02-21T23:37:53.121Z,101563.75
2023-02-21T23:40:22.766Z,101566.78
2023-02-21T23:42:54.426Z,101569.81
2023-02-21T23:45:26.242Z,101573.47
2023-02-21T23:47:55.662Z,101572.19
2023-02-21T23:50:30.255Z,101570.94
2023-02-21T23:53:02.283Z,101573.31
2023-02-21T23:55:30.892Z,101580.97
2023-02-21T23:58:03.530Z,101576.84
